sensor_id;sensor_type;location;lat;lon;timestamp;temperature;humidity
17174;DHT22;8702;48.130;-1.696;2022-11-20T00:01:06;10.70;99.90
17174;DHT22;8702;48.130;-1.696;2022-11-20T00:03:33;10.70;99.90
17174;DHT22;8702;48.130;-1.696;2022-11-20T00:06:00;10.70;99.90
17174;DHT22;8702;48.130;-1.696;2022-11-20T00:08:27;10.60;99.90
17174;DHT22;8702;48.130;-1.696;2022-11-20T00:10:54;10.70;99.90
17174;DHT22;8702;48.130;-1.696;2022-11-20T00:13:21;10.70;99.90
17174;DHT22;8702;48.130;-1.696;2022-11-20T00:15:57;10.70;99.90
17174;DHT22;8702;48.130;-1.696;2022-11-20T00:18:24;10.70;99.90
17174;DHT22;8702;48.130;-1.696;2022-11-20T00:20:51;10.70;99.90
17174;DHT22;8702;48.130;-1.696;2022-11-20T00:23:18;10.80;99.90
17174;DHT22;8702;48.130;-1.696;2022-11-20T00:25:45;10.80;99.90
17174;DHT22;8702;48.130;-1.696;2022-11-20T00:28:12;10.80;99.90
17174;DHT22;8702;48.130;-1.696;2022-11-20T00:30:39;10.90;99.90
17174;DHT22;8702;48.130;-1.696;2022-11-20T00:33:07;10.90;99.90
17174;DHT22;8702;48.130;-1.696;2022-11-20T00:35:34;10.90;99.90
17174;DHT22;8702;48.130;-1.696;2022-11-20T00:38:01;11.00;99.90
17174;DHT22;8702;48.130;-1.696;2022-11-20T00:40:28;10.90;99.90
17174;DHT22;8702;48.130;-1.696;2022-11-20T00:42:55;10.90;99.90
17174;DHT22;8702;48.130;-1.696;2022-11-20T00:45:22;10.90;99.90
17174;DHT22;8702;48.130;-1.696;2022-11-20T00:47:49;10.90;99.90
17174;DHT22;8702;48.130;-1.696;2022-11-20T00:50:17;10.90;99.90
17174;DHT22;8702;48.130;-1.696;2022-11-20T00:52:44;10.90;99.90
17174;DHT22;8702;48.130;-1.696;2022-11-20T00:55:11;10.90;99.90
17174;DHT22;8702;48.130;-1.696;2022-11-20T00:57:38;11.00;99.90
17174;DHT22;8702;48.130;-1.696;2022-11-20T01:00:07;11.00;99.90
17174;DHT22;8702;48.130;-1.696;2022-11-20T01:05:02;11.00;99.90
17174;DHT22;8702;48.130;-1.696;2022-11-20T01:07:32;10.90;99.90
17174;DHT22;8702;48.130;-1.696;2022-11-20T01:09:59;11.00;99.90
17174;DHT22;8702;48.130;-1.696;2022-11-20T01:12:26;11.10;99.90
17174;DHT22;8702;48.130;-1.696;2022-11-20T01:14:52;11.00;99.90
17174;DHT22;8702;48.130;-1.696;2022-11-20T01:17:19;11.00;99.90
17174;DHT22;8702;48.130;-1.696;2022-11-20T01:19:50;11.00;99.90
17174;DHT22;8702;48.130;-1.696;2022-11-20T01:24:46;11.00;99.90
17174;DHT22;8702;48.130;-1.696;2022-11-20T01:29:40;10.80;99.90
17174;DHT22;8702;48.130;-1.696;2022-11-20T01:32:07;10.90;99.90
17174;DHT22;8702;48.130;-1.696;2022-11-20T01:34:34;10.80;99.90
17174;DHT22;8702;48.130;-1.696;2022-11-20T01:37:01;10.80;99.90
17174;DHT22;8702;48.130;-1.696;2022-11-20T01:39:28;10.80;99.90
17174;DHT22;8702;48.130;-1.696;2022-11-20T01:41:56;10.80;99.90
17174;DHT22;8702;48.130;-1.696;2022-11-20T01:44:49;10.80;99.90
17174;DHT22;8702;48.130;-1.696;2022-11-20T01:47:18;10.80;99.90
17174;DHT22;8702;48.130;-1.696;2022-11-20T01:49:50;10.80;99.90
17174;DHT22;8702;48.130;-1.696;2022-11-20T01:54:50;10.90;99.90
17174;DHT22;8702;48.130;-1.696;2022-11-20T01:59:53;10.70;99.90
17174;DHT22;8702;48.130;-1.696;2022-11-20T02:04:53;10.80;99.90
17174;DHT22;8702;48.130;-1.696;2022-11-20T02:07:21;10.80;99.90
17174;DHT22;8702;48.130;-1.696;2022-11-20T02:09:50;10.80;99.90
17174;DHT22;8702;48.130;-1.696;2022-11-20T02:15:06;10.80;99.90
17174;DHT22;8702;48.130;-1.696;2022-11-20T02:17:33;10.90;99.90
17174;DHT22;8702;48.130;-1.696;2022-11-20T02:20:00;10.90;99.90
17174;DHT22;8702;48.130;-1.696;2022-11-20T02:22:30;10.90;99.90
17174;DHT22;8702;48.130;-1.696;2022-11-20T02:29:58;10.70;99.90
17174;DHT22;8702;48.130;-1.696;2022-11-20T02:32:28;10.80;99.90
17174;DHT22;8702;48.130;-1.696;2022-11-20T02:34:58;10.90;99.90
17174;DHT22;8702;48.130;-1.696;2022-11-20T02:37:34;10.80;99.90
17174;DHT22;8702;48.130;-1.696;2022-11-20T02:40:04;10.80;99.90
17174;DHT22;8702;48.130;-1.696;2022-11-20T02:42:31;10.90;99.90
17174;DHT22;8702;48.130;-1.696;2022-11-20T02:44:58;10.80;99.90
17174;DHT22;8702;48.130;-1.696;2022-11-20T02:47:25;10.90;99.90
17174;DHT22;8702;48.130;-1.696;2022-11-20T02:49:52;10.80;99.90
17174;DHT22;8702;48.130;-1.696;2022-11-20T02:52:19;10.80;99.90
17174;DHT22;8702;48.130;-1.696;2022-11-20T02:54:46;10.80;99.90
17174;DHT22;8702;48.130;-1.696;2022-11-20T02:57:14;10.80;99.90
17174;DHT22;8702;48.130;-1.696;2022-11-20T02:59:41;10.80;99.90
17174;DHT22;8702;48.130;-1.696;2022-11-20T03:02:08;10.80;99.90
17174;DHT22;8702;48.130;-1.696;2022-11-20T03:04:35;10.80;99.90
17174;DHT22;8702;48.130;-1.696;2022-11-20T03:09:30;10.80;99.90
17174;DHT22;8702;48.130;-1.696;2022-11-20T03:11:57;10.80;99.90
17174;DHT22;8702;48.130;-1.696;2022-11-20T03:14:25;10.80;99.90
17174;DHT22;8702;48.130;-1.696;2022-11-20T03:16:52;10.90;99.90
17174;DHT22;8702;48.130;-1.696;2022-11-20T03:19:19;10.90;99.90
17174;DHT22;8702;48.130;-1.696;2022-11-20T03:21:46;11.00;99.90
17174;DHT22;8702;48.130;-1.696;2022-11-20T03:24:13;11.00;99.90
17174;DHT22;8702;48.130;-1.696;2022-11-20T03:26:41;11.10;99.90
17174;DHT22;8702;48.130;-1.696;2022-11-20T03:29:08;11.00;99.90
17174;DHT22;8702;48.130;-1.696;2022-11-20T03:31:38;11.00;99.90
17174;DHT22;8702;48.130;-1.696;2022-11-20T03:34:07;11.00;99.90
17174;DHT22;8702;48.130;-1.696;2022-11-20T03:36:34;11.10;99.90
17174;DHT22;8702;48.130;-1.696;2022-11-20T03:39:01;11.00;99.90
17174;DHT22;8702;48.130;-1.696;2022-11-20T03:41:29;11.00;99.90
17174;DHT22;8702;48.130;-1.696;2022-11-20T03:43:58;11.00;99.90
17174;DHT22;8702;48.130;-1.696;2022-11-20T03:46:25;11.00;99.90
17174;DHT22;8702;48.130;-1.696;2022-11-20T03:48:56;10.90;99.90
17174;DHT22;8702;48.130;-1.696;2022-11-20T03:51:25;10.90;99.90
17174;DHT22;8702;48.130;-1.696;2022-11-20T03:53:53;11.00;99.90
17174;DHT22;8702;48.130;-1.696;2022-11-20T03:56:23;11.00;99.90
17174;DHT22;8702;48.130;-1.696;2022-11-20T03:58:51;11.00;99.90
17174;DHT22;8702;48.130;-1.696;2022-11-20T04:01:20;11.00;99.90
17174;DHT22;8702;48.130;-1.696;2022-11-20T04:03:48;11.10;99.90
17174;DHT22;8702;48.130;-1.696;2022-11-20T04:06:18;11.20;99.90
17174;DHT22;8702;48.130;-1.696;2022-11-20T04:08:46;11.10;99.90
17174;DHT22;8702;48.130;-1.696;2022-11-20T04:11:15;11.20;99.90
17174;DHT22;8702;48.130;-1.696;2022-11-20T04:13:46;11.20;99.90
17174;DHT22;8702;48.130;-1.696;2022-11-20T04:16:14;11.20;99.90
17174;DHT22;8702;48.130;-1.696;2022-11-20T04:18:41;11.20;99.90
17174;DHT22;8702;48.130;-1.696;2022-11-20T04:21:08;11.20;99.90
17174;DHT22;8702;48.130;-1.696;2022-11-20T04:23:37;11.10;99.90
17174;DHT22;8702;48.130;-1.696;2022-11-20T04:26:05;11.20;99.90
17174;DHT22;8702;48.130;-1.696;2022-11-20T04:28:32;11.20;99.90
17174;DHT22;8702;48.130;-1.696;2022-11-20T04:31:04;11.30;99.90
17174;DHT22;8702;48.130;-1.696;2022-11-20T04:41:01;11.40;99.90
17174;DHT22;8702;48.130;-1.696;2022-11-20T04:43:28;11.40;99.90
17174;DHT22;8702;48.130;-1.696;2022-11-20T04:45:56;11.40;99.90
17174;DHT22;8702;48.130;-1.696;2022-11-20T04:48:24;11.40;99.90
17174;DHT22;8702;48.130;-1.696;2022-11-20T04:50:56;11.40;99.90
17174;DHT22;8702;48.130;-1.696;2022-11-20T04:53:24;11.20;99.90
17174;DHT22;8702;48.130;-1.696;2022-11-20T05:00:50;11.70;99.90
17174;DHT22;8702;48.130;-1.696;2022-11-20T05:05:45;11.60;99.90
17174;DHT22;8702;48.130;-1.696;2022-11-20T05:08:12;11.40;99.90
17174;DHT22;8702;48.130;-1.696;2022-11-20T05:22:57;11.70;99.90
17174;DHT22;8702;48.130;-1.696;2022-11-20T05:25:24;11.70;99.90
17174;DHT22;8702;48.130;-1.696;2022-11-20T05:27:51;11.70;99.90
17174;DHT22;8702;48.130;-1.696;2022-11-20T05:30:18;11.70;99.90
17174;DHT22;8702;48.130;-1.696;2022-11-20T05:32:46;11.70;99.90
17174;DHT22;8702;48.130;-1.696;2022-11-20T05:35:13;11.60;99.90
17174;DHT22;8702;48.130;-1.696;2022-11-20T05:37:40;11.50;99.90
17174;DHT22;8702;48.130;-1.696;2022-11-20T06:07:22;11.30;99.90
17174;DHT22;8702;48.130;-1.696;2022-11-20T06:19:40;11.30;99.90
17174;DHT22;8702;48.130;-1.696;2022-11-20T06:22:07;11.40;99.90
17174;DHT22;8702;48.130;-1.696;2022-11-20T06:24:36;11.40;99.90
17174;DHT22;8702;48.130;-1.696;2022-11-20T06:29:30;11.60;99.90
17174;DHT22;8702;48.130;-1.696;2022-11-20T06:31:57;11.70;99.90
17174;DHT22;8702;48.130;-1.696;2022-11-20T06:34:24;11.80;99.90
17174;DHT22;8702;48.130;-1.696;2022-11-20T06:41:49;11.80;99.90
17174;DHT22;8702;48.130;-1.696;2022-11-20T06:44:16;12.00;99.90
17174;DHT22;8702;48.130;-1.696;2022-11-20T06:46:43;11.90;99.90
17174;DHT22;8702;48.130;-1.696;2022-11-20T06:49:10;12.00;99.90
17174;DHT22;8702;48.130;-1.696;2022-11-20T06:51:37;12.00;99.90
17174;DHT22;8702;48.130;-1.696;2022-11-20T06:54:04;12.00;99.90
17174;DHT22;8702;48.130;-1.696;2022-11-20T06:56:31;11.90;99.90
17174;DHT22;8702;48.130;-1.696;2022-11-20T06:59:04;11.90;99.90
17174;DHT22;8702;48.130;-1.696;2022-11-20T07:01:30;12.00;99.90
17174;DHT22;8702;48.130;-1.696;2022-11-20T07:03:57;11.90;99.90
17174;DHT22;8702;48.130;-1.696;2022-11-20T07:06:24;11.90;99.90
17174;DHT22;8702;48.130;-1.696;2022-11-20T07:08:51;11.90;99.90
17174;DHT22;8702;48.130;-1.696;2022-11-20T07:11:18;12.00;99.90
17174;DHT22;8702;48.130;-1.696;2022-11-20T07:13:45;12.10;99.90
17174;DHT22;8702;48.130;-1.696;2022-11-20T07:16:14;11.90;99.90
17174;DHT22;8702;48.130;-1.696;2022-11-20T07:18:41;11.90;99.90
17174;DHT22;8702;48.130;-1.696;2022-11-20T07:21:09;11.90;99.90
17174;DHT22;8702;48.130;-1.696;2022-11-20T07:23:37;12.00;99.90
17174;DHT22;8702;48.130;-1.696;2022-11-20T07:26:04;12.00;99.90
17174;DHT22;8702;48.130;-1.696;2022-11-20T07:28:32;12.00;99.90
17174;DHT22;8702;48.130;-1.696;2022-11-20T07:30:59;12.00;99.90
17174;DHT22;8702;48.130;-1.696;2022-11-20T07:33:27;11.90;99.90
17174;DHT22;8702;48.130;-1.696;2022-11-20T07:35:54;11.90;99.90
17174;DHT22;8702;48.130;-1.696;2022-11-20T07:38:21;12.00;99.90
17174;DHT22;8702;48.130;-1.696;2022-11-20T07:40:48;11.90;99.90
17174;DHT22;8702;48.130;-1.696;2022-11-20T07:43:19;11.90;99.90
17174;DHT22;8702;48.130;-1.696;2022-11-20T07:45:46;11.80;99.90
17174;DHT22;8702;48.130;-1.696;2022-11-20T07:48:13;11.70;99.90
17174;DHT22;8702;48.130;-1.696;2022-11-20T07:50:42;11.60;99.90
17174;DHT22;8702;48.130;-1.696;2022-11-20T07:53:08;11.60;99.90
17174;DHT22;8702;48.130;-1.696;2022-11-20T07:55:35;11.60;99.90
17174;DHT22;8702;48.130;-1.696;2022-11-20T07:58:02;11.70;99.90
17174;DHT22;8702;48.130;-1.696;2022-11-20T08:00:29;11.70;99.90
17174;DHT22;8702;48.130;-1.696;2022-11-20T08:02:56;11.70;99.90
17174;DHT22;8702;48.130;-1.696;2022-11-20T08:05:24;11.60;99.90
17174;DHT22;8702;48.130;-1.696;2022-11-20T08:10:21;11.50;99.90
17174;DHT22;8702;48.130;-1.696;2022-11-20T08:12:49;11.60;99.90
17174;DHT22;8702;48.130;-1.696;2022-11-20T08:15:34;11.60;99.90
17174;DHT22;8702;48.130;-1.696;2022-11-20T08:18:03;11.50;99.90
17174;DHT22;8702;48.130;-1.696;2022-11-20T08:20:30;11.50;99.90
17174;DHT22;8702;48.130;-1.696;2022-11-20T08:22:59;11.50;99.90
17174;DHT22;8702;48.130;-1.696;2022-11-20T08:25:27;11.60;99.90
17174;DHT22;8702;48.130;-1.696;2022-11-20T08:27:57;11.50;99.90
17174;DHT22;8702;48.130;-1.696;2022-11-20T08:30:24;11.50;99.90
17174;DHT22;8702;48.130;-1.696;2022-11-20T08:32:51;11.50;99.90
17174;DHT22;8702;48.130;-1.696;2022-11-20T08:35:18;11.40;99.90
17174;DHT22;8702;48.130;-1.696;2022-11-20T08:37:46;11.40;99.90
17174;DHT22;8702;48.130;-1.696;2022-11-20T08:40:15;11.40;99.90
17174;DHT22;8702;48.130;-1.696;2022-11-20T08:42:49;11.40;99.90
17174;DHT22;8702;48.130;-1.696;2022-11-20T08:45:17;11.40;99.90
17174;DHT22;8702;48.130;-1.696;2022-11-20T08:47:44;11.40;99.90
17174;DHT22;8702;48.130;-1.696;2022-11-20T08:50:13;11.50;99.90
17174;DHT22;8702;48.130;-1.696;2022-11-20T08:52:40;11.40;99.90
17174;DHT22;8702;48.130;-1.696;2022-11-20T08:55:08;11.40;99.90
17174;DHT22;8702;48.130;-1.696;2022-11-20T08:57:37;11.40;99.90
17174;DHT22;8702;48.130;-1.696;2022-11-20T09:00:06;11.40;99.90
17174;DHT22;8702;48.130;-1.696;2022-11-20T09:02:33;11.50;99.90
17174;DHT22;8702;48.130;-1.696;2022-11-20T09:05:00;11.40;99.90
17174;DHT22;8702;48.130;-1.696;2022-11-20T09:07:28;11.50;99.90
17174;DHT22;8702;48.130;-1.696;2022-11-20T09:09:55;11.50;99.90
17174;DHT22;8702;48.130;-1.696;2022-11-20T09:12:22;11.50;99.90
17174;DHT22;8702;48.130;-1.696;2022-11-20T09:14:51;11.50;99.90
17174;DHT22;8702;48.130;-1.696;2022-11-20T09:17:18;11.50;99.90
17174;DHT22;8702;48.130;-1.696;2022-11-20T09:19:46;11.60;99.90
17174;DHT22;8702;48.130;-1.696;2022-11-20T09:22:13;11.60;99.90
17174;DHT22;8702;48.130;-1.696;2022-11-20T09:24:40;11.70;99.90
17174;DHT22;8702;48.130;-1.696;2022-11-20T09:27:08;11.70;99.90
17174;DHT22;8702;48.130;-1.696;2022-11-20T09:29:35;11.70;99.90
17174;DHT22;8702;48.130;-1.696;2022-11-20T09:32:03;11.80;99.90
17174;DHT22;8702;48.130;-1.696;2022-11-20T09:34:31;11.70;99.90
17174;DHT22;8702;48.130;-1.696;2022-11-20T09:36:58;11.70;99.90
17174;DHT22;8702;48.130;-1.696;2022-11-20T09:39:25;11.70;99.90
17174;DHT22;8702;48.130;-1.696;2022-11-20T09:42:04;11.70;99.90
17174;DHT22;8702;48.130;-1.696;2022-11-20T09:44:55;11.80;99.90
17174;DHT22;8702;48.130;-1.696;2022-11-20T09:47:36;11.80;99.90
17174;DHT22;8702;48.130;-1.696;2022-11-20T09:50:20;11.80;99.90
17174;DHT22;8702;48.130;-1.696;2022-11-20T09:52:58;11.80;99.90
17174;DHT22;8702;48.130;-1.696;2022-11-20T09:55:29;11.90;99.90
17174;DHT22;8702;48.130;-1.696;2022-11-20T09:57:58;12.00;99.90
17174;DHT22;8702;48.130;-1.696;2022-11-20T10:00:26;12.00;99.90
17174;DHT22;8702;48.130;-1.696;2022-11-20T10:03:00;12.00;99.90
17174;DHT22;8702;48.130;-1.696;2022-11-20T10:05:30;12.10;99.90
17174;DHT22;8702;48.130;-1.696;2022-11-20T10:26:19;12.40;99.90
17174;DHT22;8702;48.130;-1.696;2022-11-20T10:29:01;12.50;99.90
17174;DHT22;8702;48.130;-1.696;2022-11-20T10:31:34;12.50;99.90
17174;DHT22;8702;48.130;-1.696;2022-11-20T10:34:06;12.50;99.90
17174;DHT22;8702;48.130;-1.696;2022-11-20T10:36:38;12.50;99.90
17174;DHT22;8702;48.130;-1.696;2022-11-20T10:39:14;12.40;99.90
17174;DHT22;8702;48.130;-1.696;2022-11-20T10:41:46;12.50;99.90
17174;DHT22;8702;48.130;-1.696;2022-11-20T10:44:17;12.50;99.90
17174;DHT22;8702;48.130;-1.696;2022-11-20T10:47:05;12.40;99.90
17174;DHT22;8702;48.130;-1.696;2022-11-20T10:49:34;12.50;99.90
17174;DHT22;8702;48.130;-1.696;2022-11-20T10:52:06;12.60;99.90
17174;DHT22;8702;48.130;-1.696;2022-11-20T10:54:39;12.60;99.90
17174;DHT22;8702;48.130;-1.696;2022-11-20T10:57:18;12.50;99.90
17174;DHT22;8702;48.130;-1.696;2022-11-20T11:00:00;12.40;99.90
17174;DHT22;8702;48.130;-1.696;2022-11-20T11:05:08;12.40;99.90
17174;DHT22;8702;48.130;-1.696;2022-11-20T11:07:39;12.40;99.90
17174;DHT22;8702;48.130;-1.696;2022-11-20T11:10:15;12.50;99.90
17174;DHT22;8702;48.130;-1.696;2022-11-20T11:12:44;12.50;99.90
17174;DHT22;8702;48.130;-1.696;2022-11-20T11:15:24;12.60;99.90
17174;DHT22;8702;48.130;-1.696;2022-11-20T11:17:52;12.50;99.90
17174;DHT22;8702;48.130;-1.696;2022-11-20T11:20:22;12.60;99.90
17174;DHT22;8702;48.130;-1.696;2022-11-20T11:28:00;12.70;99.90
17174;DHT22;8702;48.130;-1.696;2022-11-20T11:30:29;12.70;99.90
17174;DHT22;8702;48.130;-1.696;2022-11-20T12:01:05;13.20;99.90
17174;DHT22;8702;48.130;-1.696;2022-11-20T13:24:21;14.00;99.90
17174;DHT22;8702;48.130;-1.696;2022-11-20T13:27:00;14.00;99.90
17174;DHT22;8702;48.130;-1.696;2022-11-20T13:29:27;14.00;99.90
17174;DHT22;8702;48.130;-1.696;2022-11-20T13:32:03;14.10;99.90
17174;DHT22;8702;48.130;-1.696;2022-11-20T13:34:31;14.10;99.90
17174;DHT22;8702;48.130;-1.696;2022-11-20T13:36:59;14.10;99.90
17174;DHT22;8702;48.130;-1.696;2022-11-20T13:39:32;14.10;99.90
17174;DHT22;8702;48.130;-1.696;2022-11-20T13:42:00;14.20;99.90
17174;DHT22;8702;48.130;-1.696;2022-11-20T13:44:33;14.30;99.90
17174;DHT22;8702;48.130;-1.696;2022-11-20T13:47:04;14.20;99.90
17174;DHT22;8702;48.130;-1.696;2022-11-20T13:49:32;14.00;99.90
17174;DHT22;8702;48.130;-1.696;2022-11-20T13:52:26;13.80;99.90
17174;DHT22;8702;48.130;-1.696;2022-11-20T13:55:12;13.90;99.90
17174;DHT22;8702;48.130;-1.696;2022-11-20T13:58:00;14.00;99.90
17174;DHT22;8702;48.130;-1.696;2022-11-20T14:00:32;14.10;99.90
17174;DHT22;8702;48.130;-1.696;2022-11-20T14:03:09;14.20;99.90
17174;DHT22;8702;48.130;-1.696;2022-11-20T14:05:49;14.30;99.90
17174;DHT22;8702;48.130;-1.696;2022-11-20T14:08:23;14.30;99.90
17174;DHT22;8702;48.130;-1.696;2022-11-20T14:11:03;14.50;99.90
17174;DHT22;8702;48.130;-1.696;2022-11-20T14:13:29;14.50;99.90
17174;DHT22;8702;48.130;-1.696;2022-11-20T14:15:57;14.50;99.90
17174;DHT22;8702;48.130;-1.696;2022-11-20T21:46:11;11.70;99.90
17174;DHT22;8702;48.130;-1.696;2022-11-20T21:48:39;11.70;99.90
17174;DHT22;8702;48.130;-1.696;2022-11-20T21:51:10;11.60;99.90
17174;DHT22;8702;48.130;-1.696;2022-11-20T21:53:37;11.50;99.90
